createdAt,value
2016-07-06T00:00:55.613Z,0
2016-07-06T00:01:55.630Z,0
2016-07-06T00:02:55.665Z,0
2016-07-06T00:03:55.694Z,0
2016-07-06T00:04:55.698Z,0
2016-07-06T00:05:55.722Z,0
2016-07-06T00:06:55.740Z,0
2016-07-06T00:07:55.764Z,0
2016-07-06T00:08:55.772Z,0
2016-07-06T00:09:55.794Z,0
2016-07-06T00:10:55.829Z,0
2016-07-06T00:11:55.828Z,0
2016-07-06T00:12:55.851Z,0
2016-07-06T00:13:55.861Z,0
2016-07-06T00:14:55.886Z,0
2016-07-06T00:15:55.916Z,0
2016-07-06T00:16:55.935Z,0
2016-07-06T00:17:55.946Z,0
2016-07-06T00:18:55.956Z,0
2016-07-06T00:19:55.953Z,0
2016-07-06T00:20:56.001Z,0
2016-07-06T00:21:56.015Z,0
2016-07-06T00:22:56.024Z,0
2016-07-06T00:23:56.042Z,0
2016-07-06T00:24:56.043Z,0
2016-07-06T00:25:56.071Z,0
2016-07-06T00:26:56.085Z,0
2016-07-06T00:27:56.100Z,0
2016-07-06T00:28:56.142Z,0
2016-07-06T00:29:56.770Z,0
2016-07-06T00:30:56.172Z,0
2016-07-06T00:31:56.198Z,0
2016-07-06T00:32:56.213Z,0
2016-07-06T00:33:56.223Z,0
2016-07-06T00:34:56.215Z,0
2016-07-06T00:35:56.264Z,0
2016-07-06T00:36:56.272Z,0
2016-07-06T00:37:56.374Z,0
2016-07-06T00:38:56.371Z,0
2016-07-06T00:39:56.359Z,0
2016-07-06T00:40:56.365Z,0
2016-07-06T00:41:56.408Z,0
2016-07-06T00:42:56.393Z,0
2016-07-06T00:43:56.412Z,0
2016-07-06T00:44:56.417Z,0
2016-07-06T00:45:56.438Z,0
2016-07-06T00:46:56.498Z,0
2016-07-06T00:47:56.523Z,0
2016-07-06T00:48:56.515Z,0
2016-07-06T00:49:56.565Z,0
2016-07-06T00:50:56.545Z,0
2016-07-06T00:51:57.255Z,0
2016-07-06T00:52:56.570Z,0
2016-07-06T00:53:56.622Z,0
2016-07-06T00:54:56.604Z,0
2016-07-06T00:55:56.679Z,0
2016-07-06T00:56:56.652Z,0
2016-07-06T00:57:56.711Z,0
2016-07-06T00:58:56.952Z,0
2016-07-06T00:59:56.719Z,0
2016-07-06T01:00:56.740Z,0
2016-07-06T01:01:56.741Z,0
2016-07-06T01:02:56.760Z,0
2016-07-06T01:03:56.772Z,0
2016-07-06T01:04:56.800Z,0
2016-07-06T01:05:57.040Z,0
2016-07-06T01:06:56.827Z,0
2016-07-06T01:07:57.196Z,0
2016-07-06T01:08:57.175Z,0
2016-07-06T01:09:57.864Z,0
2016-07-06T01:10:57.071Z,0
2016-07-06T01:11:57.039Z,0
2016-07-06T01:12:56.941Z,0
2016-07-06T01:13:56.964Z,0
2016-07-06T01:14:56.964Z,0
2016-07-06T01:15:56.985Z,0
2016-07-06T01:16:56.991Z,0
2016-07-06T01:17:57.015Z,0
2016-07-06T01:18:57.011Z,0
2016-07-06T01:19:57.038Z,0
2016-07-06T01:20:57.073Z,0
2016-07-06T01:21:57.074Z,0
2016-07-06T01:22:57.126Z,0
2016-07-06T01:23:57.128Z,0
2016-07-06T01:24:57.148Z,0
2016-07-06T01:25:57.149Z,0
2016-07-06T01:26:57.186Z,0
2016-07-06T01:27:57.206Z,0
2016-07-06T01:28:57.202Z,0
2016-07-06T01:29:57.236Z,0
2016-07-06T01:30:57.251Z,0
2016-07-06T01:31:57.266Z,0
2016-07-06T01:32:57.285Z,0
2016-07-06T01:33:57.283Z,0
2016-07-06T01:34:57.321Z,0
2016-07-06T01:35:57.343Z,0
2016-07-06T01:36:57.367Z,0
2016-07-06T01:37:57.386Z,0
2016-07-06T01:38:57.417Z,0
2016-07-06T01:39:57.408Z,0
2016-07-06T01:40:57.435Z,0
2016-07-06T01:41:57.452Z,0
2016-07-06T01:42:57.481Z,0
2016-07-06T01:43:57.479Z,0
2016-07-06T01:44:57.502Z,0
2016-07-06T01:45:57.512Z,0
2016-07-06T01:46:57.551Z,0
2016-07-06T01:47:57.559Z,0
2016-07-06T01:48:57.583Z,0
2016-07-06T01:49:57.577Z,0
2016-07-06T01:50:57.612Z,0
2016-07-06T01:51:57.645Z,0
2016-07-06T01:52:57.653Z,0
2016-07-06T01:53:57.641Z,0
2016-07-06T01:54:57.678Z,0
2016-07-06T01:55:57.679Z,0
2016-07-06T01:56:57.686Z,0
2016-07-06T01:57:57.725Z,0
2016-07-06T01:58:57.755Z,0
2016-07-06T01:59:57.784Z,0
2016-07-06T02:00:57.796Z,0
2016-07-06T02:01:57.804Z,0
2016-07-06T02:02:57.829Z,0
2016-07-06T02:03:57.854Z,0
2016-07-06T02:04:57.867Z,0
2016-07-06T02:05:57.891Z,0
2016-07-06T02:06:57.904Z,0
2016-07-06T02:07:57.926Z,0
2016-07-06T02:08:57.933Z,0
2016-07-06T02:09:57.923Z,0
2016-07-06T02:10:57.965Z,0
2016-07-06T02:11:57.988Z,0
2016-07-06T02:12:57.999Z,0
2016-07-06T02:13:58.031Z,0
2016-07-06T02:14:58.036Z,0
2016-07-06T02:15:58.060Z,0
2016-07-06T02:16:58.067Z,0
2016-07-06T02:17:58.096Z,0
2016-07-06T02:18:58.108Z,0
2016-07-06T02:19:58.137Z,0
2016-07-06T02:20:58.151Z,0
2016-07-06T02:21:58.162Z,0
2016-07-06T02:22:58.186Z,0
2016-07-06T02:23:58.199Z,0
2016-07-06T02:24:58.224Z,0
2016-07-06T02:25:58.234Z,0
2016-07-06T02:26:58.262Z,0
2016-07-06T02:27:58.276Z,0
2016-07-06T02:28:58.300Z,0
2016-07-06T02:29:58.283Z,0
2016-07-06T02:30:58.304Z,0
2016-07-06T02:31:58.332Z,0
2016-07-06T02:32:58.335Z,0
2016-07-06T02:33:58.363Z,0
2016-07-06T02:34:58.360Z,0
2016-07-06T02:35:58.391Z,0
2016-07-06T02:36:58.396Z,0
2016-07-06T02:37:58.439Z,0
2016-07-06T02:38:58.456Z,0
2016-07-06T02:39:58.473Z,0
2016-07-06T02:40:58.502Z,0
2016-07-06T02:41:58.503Z,0
2016-07-06T02:42:58.529Z,0
2016-07-06T02:43:58.536Z,0
2016-07-06T02:44:58.562Z,0
2016-07-06T02:45:58.558Z,0
2016-07-06T02:46:58.593Z,0
2016-07-06T02:47:58.565Z,0
2016-07-06T02:48:58.636Z,0
2016-07-06T02:49:58.606Z,0
2016-07-06T02:50:58.664Z,0
2016-07-06T02:51:58.677Z,0
2016-07-06T02:52:58.712Z,0
2016-07-06T02:53:58.719Z,0
2016-07-06T02:54:58.744Z,0
2016-07-06T02:55:58.737Z,0
2016-07-06T02:56:58.780Z,0
2016-07-06T02:57:58.829Z,0
2016-07-06T02:58:58.796Z,0
2016-07-06T02:59:58.830Z,0
2016-07-06T03:00:58.836Z,0
2016-07-06T03:01:58.861Z,0
2016-07-06T03:02:58.874Z,0
2016-07-06T03:03:58.934Z,0
2016-07-06T03:04:58.908Z,0
2016-07-06T03:05:58.972Z,0
2016-07-06T03:06:58.939Z,0
2016-07-06T03:07:59.052Z,0
2016-07-06T03:08:58.962Z,0
2016-07-06T03:09:59.036Z,0
2016-07-06T03:10:58.991Z,0
2016-07-06T03:11:59.056Z,0
2016-07-06T03:12:59.029Z,0
2016-07-06T03:13:59.054Z,0
2016-07-06T03:14:59.053Z,0
2016-07-06T03:15:59.105Z,0
2016-07-06T03:16:59.093Z,0
2016-07-06T03:17:59.113Z,0
2016-07-06T03:18:59.128Z,0
2016-07-06T03:19:59.147Z,0
2016-07-06T03:20:59.161Z,0
2016-07-06T03:21:59.215Z,0
2016-07-06T03:22:59.194Z,0
2016-07-06T03:23:59.237Z,0
2016-07-06T03:24:59.240Z,0
2016-07-06T03:25:59.285Z,0
2016-07-06T03:26:59.278Z,0
2016-07-06T03:27:59.343Z,0
2016-07-06T03:28:59.378Z,0
2016-07-06T03:29:59.392Z,0
2016-07-06T03:30:59.374Z,0
2016-07-06T03:31:59.432Z,5
2016-07-06T03:32:59.446Z,5
2016-07-06T03:33:59.455Z,5
2016-07-06T03:34:59.452Z,5
2016-07-06T03:35:59.452Z,5
2016-07-06T03:36:59.439Z,5
2016-07-06T03:37:59.460Z,5
2016-07-06T03:38:59.500Z,5
2016-07-06T03:39:59.517Z,5
2016-07-06T03:40:59.554Z,5
2016-07-06T03:41:59.544Z,5
2016-07-06T03:42:59.574Z,5
2016-07-06T03:43:59.575Z,5
2016-07-06T03:44:59.581Z,5
2016-07-06T03:45:59.619Z,5
2016-07-06T03:46:59.640Z,5
2016-07-06T03:47:59.630Z,5
2016-07-06T03:48:59.651Z,5
2016-07-06T03:49:59.675Z,5
2016-07-06T03:50:59.675Z,5
2016-07-06T03:51:59.725Z,5
2016-07-06T03:52:59.715Z,5
2016-07-06T03:53:59.757Z,5
2016-07-06T03:54:59.795Z,5
2016-07-06T03:55:59.798Z,5
2016-07-06T03:56:59.813Z,5
2016-07-06T03:57:59.802Z,5
2016-07-06T03:58:59.825Z,5
2016-07-06T03:59:59.858Z,5
2016-07-06T04:00:59.909Z,5
2016-07-06T04:01:59.893Z,5
2016-07-06T04:02:59.898Z,10
2016-07-06T04:03:59.946Z,10
2016-07-06T04:04:59.961Z,10
2016-07-06T04:06:00.030Z,10
2016-07-06T04:07:00.015Z,10
2016-07-06T04:08:00.035Z,10
2016-07-06T04:09:00.025Z,5
2016-07-06T04:10:00.046Z,10
2016-07-06T04:11:00.048Z,10
2016-07-06T04:12:00.069Z,10
2016-07-06T04:13:00.100Z,10
2016-07-06T04:14:00.108Z,10
2016-07-06T04:15:00.110Z,15
2016-07-06T04:16:00.154Z,15
2016-07-06T04:17:00.150Z,15
2016-07-06T04:18:00.166Z,15
2016-07-06T04:19:00.162Z,10
2016-07-06T04:20:00.219Z,10
2016-07-06T04:21:00.231Z,10
2016-07-06T04:22:00.253Z,10
2016-07-06T04:23:00.264Z,15
2016-07-06T04:24:00.315Z,20
2016-07-06T04:25:00.314Z,20
2016-07-06T04:26:00.328Z,20
2016-07-06T04:27:00.311Z,20
2016-07-06T04:28:00.350Z,15
2016-07-06T04:29:00.363Z,15
2016-07-06T04:30:00.353Z,15
2016-07-06T04:31:00.401Z,15
2016-07-06T04:32:00.415Z,15
2016-07-06T04:33:00.458Z,15
2016-07-06T04:34:00.462Z,15
2016-07-06T04:35:00.479Z,10
2016-07-06T04:36:00.486Z,10
2016-07-06T04:37:00.501Z,10
2016-07-06T04:38:00.543Z,10
2016-07-06T04:39:00.555Z,10
2016-07-06T04:40:00.564Z,10
2016-07-06T04:41:00.545Z,10
2016-07-06T04:42:00.578Z,10
2016-07-06T04:43:00.611Z,15
2016-07-06T04:44:00.605Z,15
2016-07-06T04:45:00.632Z,10
2016-07-06T04:46:00.666Z,10
2016-07-06T04:47:00.649Z,15
2016-07-06T04:48:00.727Z,15
2016-07-06T04:49:00.730Z,15
2016-07-06T04:50:00.738Z,15
2016-07-06T04:51:00.760Z,20
2016-07-06T04:52:00.763Z,20
2016-07-06T04:53:00.801Z,20
2016-07-06T04:54:00.825Z,25
2016-07-06T04:55:00.878Z,25
2016-07-06T04:56:00.854Z,25
2016-07-06T04:57:00.908Z,30
2016-07-06T04:58:00.916Z,30
2016-07-06T04:59:00.959Z,30
2016-07-06T05:00:00.966Z,25
2016-07-06T05:01:00.974Z,25
2016-07-06T05:02:00.956Z,30
2016-07-06T05:03:00.979Z,25
2016-07-06T05:04:00.971Z,25
2016-07-06T05:05:01.008Z,25
2016-07-06T05:06:01.017Z,25
2016-07-06T05:07:01.035Z,20
2016-07-06T05:08:01.061Z,20
2016-07-06T05:09:01.076Z,15
2016-07-06T05:10:01.101Z,15
2016-07-06T05:11:01.102Z,15
2016-07-06T05:12:01.114Z,20
2016-07-06T05:13:01.137Z,25
2016-07-06T05:14:01.168Z,25
2016-07-06T05:15:01.179Z,25
2016-07-06T05:16:01.191Z,25
2016-07-06T05:17:01.219Z,30
2016-07-06T05:18:01.224Z,35
2016-07-06T05:19:01.261Z,35
2016-07-06T05:20:01.263Z,35
2016-07-06T05:21:01.302Z,30
2016-07-06T05:22:01.316Z,35
2016-07-06T05:23:01.319Z,40
2016-07-06T05:24:01.346Z,40
2016-07-06T05:25:01.354Z,45
2016-07-06T05:26:01.363Z,50
2016-07-06T05:27:01.398Z,50
2016-07-06T05:28:01.429Z,60
2016-07-06T05:29:01.431Z,60
2016-07-06T05:30:01.450Z,65
2016-07-06T05:31:01.456Z,60
2016-07-06T05:32:01.494Z,55
2016-07-06T05:33:01.513Z,55
2016-07-06T05:34:01.518Z,60
2016-07-06T05:35:01.550Z,65
2016-07-06T05:36:01.557Z,55
2016-07-06T05:37:01.569Z,45
2016-07-06T05:38:01.588Z,40
2016-07-06T05:39:01.617Z,40
2016-07-06T05:40:01.620Z,55
2016-07-06T05:41:01.637Z,60
2016-07-06T05:42:01.678Z,60
2016-07-06T05:43:01.674Z,50
2016-07-06T05:44:01.698Z,50
2016-07-06T05:45:01.710Z,60
2016-07-06T05:46:01.742Z,70
2016-07-06T05:47:01.766Z,85
2016-07-06T05:48:01.764Z,95
2016-07-06T05:49:01.778Z,105
2016-07-06T05:50:01.809Z,115
2016-07-06T05:51:01.827Z,120
2016-07-06T05:52:01.846Z,130
2016-07-06T05:53:01.871Z,150
2016-07-06T05:54:01.879Z,200
2016-07-06T05:55:01.897Z,150
2016-07-06T05:56:01.917Z,150
2016-07-06T05:57:01.937Z,105
2016-07-06T05:58:01.947Z,95
2016-07-06T05:59:01.929Z,90
2016-07-06T06:00:01.960Z,95
2016-07-06T06:01:02.029Z,90
2016-07-06T06:02:02.031Z,100
2016-07-06T06:03:02.011Z,110
2016-07-06T06:04:02.060Z,105
2016-07-06T06:05:02.102Z,105
2016-07-06T06:06:02.088Z,105
2016-07-06T06:07:02.130Z,95
2016-07-06T06:08:02.132Z,90
2016-07-06T06:09:02.164Z,90
2016-07-06T06:10:02.163Z,90
2016-07-06T06:11:02.207Z,80
2016-07-06T06:12:02.194Z,80
2016-07-06T06:13:02.220Z,75
2016-07-06T06:14:02.242Z,80
2016-07-06T06:15:02.252Z,95
2016-07-06T06:16:02.281Z,100
2016-07-06T06:17:02.301Z,95
2016-07-06T06:18:02.309Z,85
2016-07-06T06:19:02.330Z,80
2016-07-06T06:20:02.385Z,75
2016-07-06T06:21:02.418Z,70
2016-07-06T06:22:02.418Z,75
2016-07-06T06:23:02.422Z,75
2016-07-06T06:24:02.455Z,70
2016-07-06T06:25:02.456Z,65
2016-07-06T06:26:02.469Z,60
2016-07-06T06:27:02.474Z,75
2016-07-06T06:28:02.510Z,105
2016-07-06T06:29:02.510Z,110
2016-07-06T06:30:02.539Z,105
2016-07-06T06:31:02.543Z,90
2016-07-06T06:32:02.564Z,70
2016-07-06T06:33:02.594Z,70
2016-07-06T06:34:02.585Z,70
2016-07-06T06:35:02.610Z,70
2016-07-06T06:36:02.647Z,65
2016-07-06T06:37:02.663Z,75
2016-07-06T06:38:02.643Z,95
2016-07-06T06:39:02.700Z,120
2016-07-06T06:40:02.710Z,120
2016-07-06T06:41:02.723Z,115
2016-07-06T06:42:02.736Z,110
2016-07-06T06:43:02.784Z,115
2016-07-06T06:44:02.783Z,115
2016-07-06T06:45:02.819Z,115
2016-07-06T06:46:02.828Z,110
2016-07-06T06:47:02.840Z,100
2016-07-06T06:48:02.862Z,85
2016-07-06T06:49:02.887Z,75
2016-07-06T06:50:02.883Z,75
2016-07-06T06:51:02.963Z,75
2016-07-06T06:52:02.956Z,70
2016-07-06T06:53:02.966Z,65
2016-07-06T06:54:02.976Z,70
2016-07-06T06:55:02.955Z,90
2016-07-06T06:56:02.998Z,105
2016-07-06T06:57:03.003Z,100
2016-07-06T06:58:03.050Z,95
2016-07-06T06:59:03.070Z,90
2016-07-06T07:00:03.075Z,85
2016-07-06T07:01:03.080Z,90
2016-07-06T07:02:03.108Z,105
2016-07-06T07:03:03.144Z,120
2016-07-06T07:04:03.126Z,115
2016-07-06T07:05:03.177Z,110
2016-07-06T07:06:03.173Z,100
2016-07-06T07:07:03.170Z,115
2016-07-06T07:08:03.214Z,120
2016-07-06T07:09:03.234Z,135
2016-07-06T07:10:03.235Z,185
2016-07-06T07:11:03.237Z,170
2016-07-06T07:12:03.287Z,185
2016-07-06T07:13:03.296Z,170
2016-07-06T07:14:03.345Z,175
2016-07-06T07:15:03.328Z,190
2016-07-06T07:16:03.382Z,185
2016-07-06T07:17:03.377Z,165
2016-07-06T07:18:03.403Z,225
2016-07-06T07:19:03.423Z,150
2016-07-06T07:20:03.450Z,145
2016-07-06T07:21:03.477Z,140
2016-07-06T07:22:03.479Z,135
2016-07-06T07:23:03.494Z,140
2016-07-06T07:24:03.515Z,155
2016-07-06T07:25:03.545Z,165
2016-07-06T07:26:03.531Z,230
2016-07-06T07:27:03.580Z,230
2016-07-06T07:28:03.607Z,235
2016-07-06T07:29:03.629Z,200
2016-07-06T07:30:03.643Z,250
2016-07-06T07:31:03.662Z,260
2016-07-06T07:32:03.681Z,260
2016-07-06T07:33:03.693Z,190
2016-07-06T07:34:03.714Z,250
2016-07-06T07:35:03.751Z,180
2016-07-06T07:36:03.769Z,235
2016-07-06T07:37:03.747Z,165
2016-07-06T07:38:03.780Z,215
2016-07-06T07:39:03.805Z,135
2016-07-06T07:40:03.840Z,115
2016-07-06T07:41:03.857Z,105
2016-07-06T07:42:03.869Z,105
2016-07-06T07:43:03.898Z,105
2016-07-06T07:44:03.948Z,115
2016-07-06T07:45:03.976Z,135
2016-07-06T07:46:03.994Z,150
2016-07-06T07:47:04.022Z,165
2016-07-06T07:48:04.030Z,175
2016-07-06T07:49:04.047Z,175
2016-07-06T07:50:04.056Z,180
2016-07-06T07:51:04.058Z,195
2016-07-06T07:52:04.076Z,245
2016-07-06T07:53:04.078Z,210
2016-07-06T07:54:04.098Z,175
2016-07-06T07:55:04.119Z,160
2016-07-06T07:56:04.158Z,155
2016-07-06T07:57:04.158Z,150
2016-07-06T07:58:04.186Z,155
2016-07-06T07:59:04.188Z,165
2016-07-06T08:00:04.222Z,180
2016-07-06T08:01:04.204Z,190
2016-07-06T08:02:04.271Z,195
2016-07-06T08:03:04.284Z,205
2016-07-06T08:04:04.309Z,200
2016-07-06T08:05:04.319Z,185
2016-07-06T08:06:04.320Z,170
2016-07-06T08:07:04.352Z,170
2016-07-06T08:08:04.378Z,170
2016-07-06T08:09:04.383Z,160
2016-07-06T08:10:04.416Z,140
2016-07-06T08:11:04.423Z,120
2016-07-06T08:12:04.448Z,100
2016-07-06T08:13:04.449Z,95
2016-07-06T08:14:04.474Z,90
2016-07-06T08:15:04.479Z,95
2016-07-06T08:16:04.512Z,105
2016-07-06T08:17:04.525Z,110
2016-07-06T08:18:04.543Z,125
2016-07-06T08:19:04.556Z,145
2016-07-06T08:20:04.572Z,165
2016-07-06T08:21:04.596Z,180
2016-07-06T08:22:04.620Z,185
2016-07-06T08:23:04.646Z,210
2016-07-06T08:24:04.660Z,270
2016-07-06T08:25:04.667Z,230
2016-07-06T08:26:04.715Z,200
2016-07-06T08:27:04.727Z,190
2016-07-06T08:28:04.765Z,185
2016-07-06T08:29:04.786Z,195
2016-07-06T08:30:04.784Z,190
2016-07-06T08:31:04.798Z,195
2016-07-06T08:32:04.829Z,195
2016-07-06T08:33:04.846Z,190
2016-07-06T08:34:04.847Z,195
2016-07-06T08:35:04.863Z,195
2016-07-06T08:36:04.894Z,205
2016-07-06T08:37:04.918Z,220
2016-07-06T08:38:04.954Z,205
2016-07-06T08:39:04.947Z,155
2016-07-06T08:40:04.991Z,145
2016-07-06T08:41:04.979Z,130
2016-07-06T08:42:05.012Z,115
2016-07-06T08:43:05.030Z,110
2016-07-06T08:44:05.045Z,105
2016-07-06T08:45:05.087Z,105
2016-07-06T08:46:05.095Z,100
2016-07-06T08:47:05.102Z,105
2016-07-06T08:48:05.135Z,110
2016-07-06T08:49:05.160Z,105
2016-07-06T08:50:05.188Z,105
2016-07-06T08:51:05.209Z,110
2016-07-06T08:52:05.193Z,125
2016-07-06T08:53:05.214Z,150
2016-07-06T08:54:05.250Z,170
2016-07-06T08:55:05.272Z,185
2016-07-06T08:56:05.294Z,190
2016-07-06T08:57:05.326Z,210
2016-07-06T08:58:05.344Z,210
2016-07-06T08:59:05.352Z,215
2016-07-06T09:00:05.382Z,235
2016-07-06T09:01:05.409Z,250
2016-07-06T09:02:05.416Z,265
2016-07-06T09:03:05.444Z,270
2016-07-06T09:04:05.446Z,195
2016-07-06T09:05:05.469Z,190
2016-07-06T09:06:05.515Z,190
2016-07-06T09:07:05.509Z,190
2016-07-06T09:08:05.536Z,175
2016-07-06T09:09:05.567Z,170
2016-07-06T09:10:05.578Z,165
2016-07-06T09:11:05.599Z,170
2016-07-06T09:12:05.621Z,180
2016-07-06T09:13:05.634Z,190
2016-07-06T09:14:05.664Z,200
2016-07-06T09:15:05.665Z,205
2016-07-06T09:16:05.696Z,205
2016-07-06T09:17:05.712Z,200
2016-07-06T09:18:05.728Z,200
2016-07-06T09:19:05.751Z,210
2016-07-06T09:20:05.762Z,230
2016-07-06T09:21:05.783Z,215
2016-07-06T09:22:05.805Z,260
2016-07-06T09:23:05.824Z,200
2016-07-06T09:24:05.846Z,185
2016-07-06T09:25:05.863Z,170
2016-07-06T09:26:05.889Z,160
2016-07-06T09:27:05.906Z,160
2016-07-06T09:28:05.940Z,160
2016-07-06T09:29:05.940Z,170
2016-07-06T09:30:06.013Z,170
2016-07-06T09:31:06.011Z,180
2016-07-06T09:32:06.008Z,190
2016-07-06T09:33:06.016Z,265
2016-07-06T09:34:06.043Z,240
2016-07-06T09:35:06.054Z,245
2016-07-06T09:36:06.749Z,270
2016-07-06T09:37:06.129Z,230
2016-07-06T09:38:06.161Z,240
2016-07-06T09:39:06.175Z,225
2016-07-06T09:40:06.218Z,225
2016-07-06T09:41:06.168Z,220
2016-07-06T09:42:06.201Z,215
2016-07-06T09:43:06.217Z,215
2016-07-06T09:44:06.240Z,215
2016-07-06T09:45:06.269Z,225
2016-07-06T09:46:06.258Z,265
2016-07-06T09:47:06.285Z,280
2016-07-06T09:48:06.312Z,220
2016-07-06T09:49:06.340Z,220
2016-07-06T09:50:06.342Z,235
2016-07-06T09:51:06.385Z,215
2016-07-06T09:52:06.400Z,255
2016-07-06T09:53:06.423Z,205
2016-07-06T09:54:06.444Z,215
2016-07-06T09:55:06.467Z,285
2016-07-06T09:56:06.460Z,245
2016-07-06T09:57:06.510Z,300
2016-07-06T09:58:06.508Z,230
2016-07-06T09:59:06.541Z,280
2016-07-06T10:00:06.552Z,230
2016-07-06T10:01:06.565Z,245
2016-07-06T10:02:06.576Z,210
2016-07-06T10:03:06.605Z,205
2016-07-06T10:04:06.630Z,215
2016-07-06T10:05:06.658Z,220
2016-07-06T10:06:06.664Z,280
2016-07-06T10:07:06.690Z,235
2016-07-06T10:08:06.716Z,225
2016-07-06T10:09:06.728Z,220
2016-07-06T10:10:06.773Z,225
2016-07-06T10:11:06.793Z,225
2016-07-06T10:12:06.794Z,210
2016-07-06T10:13:06.821Z,200
2016-07-06T10:14:06.832Z,265
2016-07-06T10:15:06.846Z,265
2016-07-06T10:16:06.902Z,265
2016-07-06T10:17:06.912Z,275
2016-07-06T10:18:06.920Z,275
2016-07-06T10:19:06.949Z,275
2016-07-06T10:20:06.974Z,195
2016-07-06T10:21:07.009Z,195
2016-07-06T10:22:07.019Z,210
2016-07-06T10:23:07.038Z,220
2016-07-06T10:24:07.055Z,210
2016-07-06T10:25:07.080Z,190
2016-07-06T10:26:07.099Z,185
2016-07-06T10:27:07.105Z,185
2016-07-06T10:28:07.129Z,185
2016-07-06T10:29:07.163Z,215
2016-07-06T10:30:07.197Z,255
2016-07-06T10:31:07.205Z,220
2016-07-06T10:32:07.215Z,210
2016-07-06T10:33:07.250Z,270
2016-07-06T10:34:07.272Z,275
2016-07-06T10:35:07.289Z,200
2016-07-06T10:36:07.319Z,270
2016-07-06T10:37:07.335Z,195
2016-07-06T10:38:07.368Z,190
2016-07-06T10:39:07.373Z,190
2016-07-06T10:40:07.388Z,195
2016-07-06T10:41:07.417Z,210
2016-07-06T10:42:07.437Z,225
2016-07-06T10:43:07.449Z,245
2016-07-06T10:44:07.484Z,325
2016-07-06T10:45:07.504Z,330
2016-07-06T10:46:07.517Z,315
2016-07-06T10:47:07.540Z,305
2016-07-06T10:48:07.552Z,290
2016-07-06T10:49:07.585Z,230
2016-07-06T10:50:07.607Z,220
2016-07-06T10:51:07.624Z,200
2016-07-06T10:52:07.637Z,195
2016-07-06T10:53:07.666Z,190
2016-07-06T10:54:07.682Z,190
2016-07-06T10:55:07.697Z,190
2016-07-06T10:56:10.876Z,200
2016-07-06T10:57:07.755Z,200
2016-07-06T10:58:07.753Z,205
2016-07-06T10:59:07.860Z,210
2016-07-06T11:00:07.795Z,205
2016-07-06T11:01:07.821Z,200
2016-07-06T11:02:07.858Z,200
2016-07-06T11:03:07.881Z,200
2016-07-06T11:04:07.901Z,205
2016-07-06T11:05:07.907Z,210
2016-07-06T11:06:07.928Z,210
2016-07-06T11:07:07.961Z,215
2016-07-06T11:08:07.977Z,230
2016-07-06T11:09:07.990Z,310
2016-07-06T11:10:08.009Z,315
2016-07-06T11:11:08.042Z,320
2016-07-06T11:12:08.049Z,245
2016-07-06T11:13:08.083Z,240
2016-07-06T11:14:08.149Z,290
2016-07-06T11:15:08.154Z,240
2016-07-06T11:16:08.140Z,245
2016-07-06T11:17:08.150Z,250
2016-07-06T11:18:08.186Z,260
2016-07-06T11:19:08.260Z,330
2016-07-06T11:20:08.259Z,330
2016-07-06T11:21:08.289Z,335
2016-07-06T11:22:08.295Z,340
2016-07-06T11:23:08.338Z,260
2016-07-06T11:24:08.353Z,265
2016-07-06T11:25:08.353Z,260
2016-07-06T11:26:08.364Z,255
2016-07-06T11:27:08.370Z,245
2016-07-06T11:28:08.406Z,235
2016-07-06T11:29:08.413Z,225
2016-07-06T11:30:08.440Z,225
2016-07-06T11:31:08.466Z,210
2016-07-06T11:32:08.432Z,205
2016-07-06T11:33:08.480Z,205
2016-07-06T11:34:08.485Z,200
2016-07-06T11:35:08.524Z,205
2016-07-06T11:36:08.561Z,205
2016-07-06T11:37:08.546Z,205
2016-07-06T11:38:08.591Z,200
2016-07-06T11:39:08.590Z,195
2016-07-06T11:40:08.646Z,195
2016-07-06T11:41:08.656Z,190
2016-07-06T11:42:08.662Z,185
2016-07-06T11:43:08.704Z,180
2016-07-06T11:44:08.693Z,175
2016-07-06T11:45:08.758Z,175
2016-07-06T11:46:08.767Z,175
2016-07-06T11:47:08.759Z,180
2016-07-06T11:48:08.780Z,190
2016-07-06T11:49:08.800Z,195
2016-07-06T11:50:08.830Z,205
2016-07-06T11:51:08.845Z,205
2016-07-06T11:52:08.892Z,215
2016-07-06T11:53:08.887Z,225
2016-07-06T11:54:08.903Z,215
2016-07-06T11:55:08.918Z,210
2016-07-06T11:56:08.945Z,205
2016-07-06T11:57:08.969Z,200
2016-07-06T11:58:08.985Z,195
2016-07-06T11:59:09.009Z,195
2016-07-06T12:00:09.026Z,195
2016-07-06T12:01:09.052Z,195
2016-07-06T12:02:09.065Z,195
2016-07-06T12:03:09.096Z,195
2016-07-06T12:04:09.135Z,195
2016-07-06T12:05:09.172Z,195
2016-07-06T12:06:09.168Z,195
2016-07-06T12:07:09.216Z,195
2016-07-06T12:08:09.230Z,195
2016-07-06T12:09:09.234Z,200
2016-07-06T12:10:09.258Z,210
2016-07-06T12:11:09.284Z,225
2016-07-06T12:12:09.302Z,235
2016-07-06T12:13:09.330Z,250
2016-07-06T12:14:09.356Z,270
2016-07-06T12:15:09.359Z,275
2016-07-06T12:16:09.384Z,310
2016-07-06T12:17:09.375Z,280
2016-07-06T12:18:09.442Z,310
2016-07-06T12:19:09.453Z,270
2016-07-06T12:20:09.454Z,260
2016-07-06T12:21:09.484Z,270
2016-07-06T12:22:09.511Z,290
2016-07-06T12:23:09.548Z,280
2016-07-06T12:24:09.532Z,280
2016-07-06T12:25:09.544Z,280
2016-07-06T12:26:09.622Z,285
2016-07-06T12:27:09.618Z,285
2016-07-06T12:28:09.648Z,285
2016-07-06T12:29:09.663Z,305
2016-07-06T12:30:10.682Z,295
2016-07-06T12:31:09.673Z,285
2016-07-06T12:32:09.711Z,285
2016-07-06T12:33:09.754Z,280
2016-07-06T12:34:09.913Z,280
2016-07-06T12:35:11.221Z,325
2016-07-06T12:36:09.881Z,315
2016-07-06T12:37:09.803Z,310
2016-07-06T12:38:09.861Z,300
2016-07-06T12:39:09.915Z,285
2016-07-06T12:40:09.890Z,265
2016-07-06T12:41:09.950Z,255
2016-07-06T12:42:09.946Z,250
2016-07-06T12:43:09.987Z,240
2016-07-06T12:44:10.021Z,230
2016-07-06T12:45:10.022Z,220
2016-07-06T12:46:10.082Z,210
2016-07-06T12:47:10.084Z,200
2016-07-06T12:48:10.084Z,215
2016-07-06T12:49:10.082Z,225
2016-07-06T12:50:10.098Z,230
2016-07-06T12:51:10.110Z,240
2016-07-06T12:52:10.131Z,240
2016-07-06T12:53:10.167Z,240
2016-07-06T12:54:10.185Z,240
2016-07-06T12:55:10.199Z,235
2016-07-06T12:56:10.238Z,230
2016-07-06T12:57:10.250Z,230
2016-07-06T12:58:10.250Z,230
2016-07-06T12:59:10.286Z,235
2016-07-06T13:00:10.294Z,230
2016-07-06T13:01:10.329Z,230
2016-07-06T13:02:10.368Z,230
2016-07-06T13:03:10.353Z,225
2016-07-06T13:04:10.400Z,225
2016-07-06T13:05:10.430Z,225
2016-07-06T13:06:10.441Z,225
2016-07-06T13:07:10.464Z,225
2016-07-06T13:08:10.478Z,230
2016-07-06T13:09:10.506Z,235
2016-07-06T13:10:10.555Z,255
2016-07-06T13:11:10.547Z,240
2016-07-06T13:12:10.554Z,240
2016-07-06T13:13:10.578Z,240
2016-07-06T13:14:10.618Z,250
2016-07-06T13:15:10.625Z,260
2016-07-06T13:16:10.661Z,305
2016-07-06T13:17:10.666Z,300
2016-07-06T13:18:10.686Z,285
2016-07-06T13:19:10.719Z,345
2016-07-06T13:20:10.716Z,315
2016-07-06T13:21:10.759Z,295
2016-07-06T13:22:10.750Z,300
2016-07-06T13:23:10.800Z,285
2016-07-06T13:24:10.833Z,380
2016-07-06T13:25:10.853Z,305
2016-07-06T13:26:10.854Z,295
2016-07-06T13:27:10.895Z,285
2016-07-06T13:28:10.906Z,280
2016-07-06T13:29:10.935Z,305
2016-07-06T13:30:10.938Z,290
2016-07-06T13:31:10.949Z,365
2016-07-06T13:32:10.973Z,295
2016-07-06T13:33:10.998Z,295
2016-07-06T13:34:11.017Z,280
2016-07-06T13:35:11.024Z,290
2016-07-06T13:36:11.067Z,350
2016-07-06T13:37:11.071Z,285
2016-07-06T13:38:11.107Z,270
2016-07-06T13:39:11.120Z,270
2016-07-06T13:40:11.173Z,265
2016-07-06T13:41:11.178Z,305
2016-07-06T13:42:11.182Z,260
2016-07-06T13:43:11.204Z,265
2016-07-06T13:44:11.238Z,265
2016-07-06T13:45:11.247Z,270
2016-07-06T13:46:11.273Z,265
2016-07-06T13:47:11.299Z,280
2016-07-06T13:48:11.316Z,295
2016-07-06T13:49:11.336Z,275
2016-07-06T13:50:11.380Z,290
2016-07-06T13:51:11.391Z,285
2016-07-06T13:52:11.419Z,280
2016-07-06T13:53:11.435Z,290
2016-07-06T13:54:11.453Z,290
2016-07-06T13:55:11.499Z,365
2016-07-06T13:56:11.522Z,380
2016-07-06T13:57:11.559Z,290
2016-07-06T13:58:11.581Z,390
2016-07-06T13:59:11.577Z,385
2016-07-06T14:00:11.613Z,380
2016-07-06T14:01:11.658Z,380
2016-07-06T14:02:11.665Z,290
2016-07-06T14:03:11.680Z,265
2016-07-06T14:04:11.721Z,310
2016-07-06T14:05:11.735Z,300
2016-07-06T14:06:11.731Z,260
2016-07-06T14:07:11.750Z,255
2016-07-06T14:08:11.786Z,250
2016-07-06T14:09:11.800Z,325